Time;durP1;ratioP1;P1;durP2;ratioP2;P2;SDS_P1;SDS_P2;PMS_P1;PMS_P2;Temp;Humidity;BMP_temperature;BMP_pressure;BME280_temperature;BME280_humidity;BME280_pressure;Samples;Min_cycle;Max_cycle;Signal;HPM_P1;HPM_P2
2022/05/22 00:01:42;;;;;;;12.77;6.28;;;12.20;97.30;;;;;;5061320;28;20053;-42
2022/05/22 00:04:09;;;;;;;7.35;4.97;;;12.10;97.70;;;;;;5069603;28;20064;-42
2022/05/22 00:06:35;;;;;;;12.80;6.10;;;12.10;97.60;;;;;;5066688;28;20499;-42
2022/05/22 00:09:02;;;;;;;10.55;5.65;;;12.00;97.40;;;;;;5072180;28;20058;-43
2022/05/22 00:11:29;;;;;;;9.90;5.38;;;11.90;97.40;;;;;;5069803;28;20045;-42
2022/05/22 00:13:57;;;;;;;11.50;6.70;;;11.90;97.20;;;;;;5070478;28;20055;-43
2022/05/22 00:16:40;;;;;;;10.85;5.50;;;11.90;97.60;;;;;;5071477;28;20477;-42
2022/05/22 00:19:08;;;;;;;12.43;6.10;;;11.90;97.80;;;;;;5053920;28;20119;-42
2022/05/22 00:21:36;;;;;;;10.88;5.57;;;11.80;97.70;;;;;;5052346;28;20048;-43
2022/05/22 00:24:02;;;;;;;15.82;6.32;;;11.80;97.80;;;;;;5068956;28;20052;-42
2022/05/22 00:26:29;;;;;;;15.32;6.00;;;11.80;97.80;;;;;;5064793;28;20041;-42
2022/05/22 00:28:57;;;;;;;11.55;5.70;;;11.80;97.90;;;;;;5070900;28;20067;-42
2022/05/22 00:31:24;;;;;;;14.55;5.65;;;11.70;98.00;;;;;;5057621;28;20135;-42
2022/05/22 00:33:50;;;;;;;11.65;5.35;;;11.70;98.30;;;;;;5057726;28;20050;-43
2022/05/22 00:36:17;;;;;;;11.20;5.82;;;11.70;98.20;;;;;;5068210;28;20416;-42
2022/05/22 00:38:44;;;;;;;10.18;5.63;;;11.70;98.10;;;;;;5066755;28;20055;-43
2022/05/22 00:41:11;;;;;;;11.25;5.68;;;11.70;97.80;;;;;;5073290;28;20091;-43
2022/05/22 00:43:39;;;;;;;11.20;4.95;;;11.60;97.70;;;;;;5068428;28;20060;-42
2022/05/22 00:46:08;;;;;;;9.02;4.63;;;11.60;97.80;;;;;;5054757;28;20497;-42
2022/05/22 00:48:35;;;;;;;11.95;5.43;;;11.60;98.00;;;;;;5064814;28;20049;-41
2022/05/22 00:51:03;;;;;;;9.55;4.68;;;11.50;98.20;;;;;;5073573;28;20080;-42
2022/05/22 00:53:31;;;;;;;8.10;4.50;;;11.50;98.20;;;;;;5075437;28;20067;-43
2022/05/22 00:55:57;;;;;;;11.05;5.30;;;11.50;98.20;;;;;;5052746;28;20532;-42
2022/05/22 00:58:25;;;;;;;7.32;4.05;;;11.50;98.10;;;;;;5051403;28;20051;-43
2022/05/22 01:00:52;;;;;;;8.80;4.80;;;11.40;98.00;;;;;;5073537;28;20049;-42
2022/05/22 01:03:28;;;;;;;9.65;4.22;;;11.40;97.90;;;;;;5074896;28;20554;-42
2022/05/22 01:05:55;;;;;;;6.43;4.05;;;11.40;97.80;;;;;;5057103;28;20061;-42
2022/05/22 01:08:22;;;;;;;11.00;4.38;;;11.40;97.60;;;;;;5051931;28;20045;-42
2022/05/22 01:10:49;;;;;;;11.95;4.40;;;11.40;97.70;;;;;;5056426;28;20045;-42
2022/05/22 01:13:17;;;;;;;8.82;4.30;;;11.50;97.70;;;;;;5074248;28;20518;-42
2022/05/22 01:15:44;;;;;;;7.03;3.80;;;11.40;97.60;;;;;;5074497;28;20048;-43
2022/05/22 01:18:11;;;;;;;8.00;4.15;;;11.40;97.60;;;;;;5073782;28;20094;-43
2022/05/22 01:20:45;;;;;;;11.93;4.97;;;11.40;97.50;;;;;;5073543;28;20056;-43
2022/05/22 01:23:13;;;;;;;5.60;3.50;;;11.30;97.60;;;;;;5056623;28;20136;-42
2022/05/22 01:25:40;;;;;;;9.27;4.38;;;11.30;97.50;;;;;;5075213;28;20049;-42
2022/05/22 01:28:07;;;;;;;9.82;4.65;;;11.30;97.40;;;;;;5055776;28;20044;-42
2022/05/22 01:30:34;;;;;;;6.03;3.40;;;11.30;97.40;;;;;;5075452;28;20052;-42
2022/05/22 01:33:01;;;;;;;6.80;4.07;;;11.20;97.30;;;;;;5067191;28;20415;-42
2022/05/22 01:35:28;;;;;;;7.22;3.97;;;11.20;97.40;;;;;;5073265;28;20045;-42
2022/05/22 01:37:55;;;;;;;8.85;4.10;;;11.20;97.70;;;;;;5072792;28;20055;-42
2022/05/22 01:40:23;;;;;;;7.72;3.70;;;11.20;97.90;;;;;;5073289;28;20046;-42
2022/05/22 01:42:50;;;;;;;6.95;4.15;;;11.10;98.00;;;;;;5055745;28;20059;-41
2022/05/22 01:45:18;;;;;;;10.00;4.35;;;11.10;98.50;;;;;;5074660;28;20044;-42
2022/05/22 01:47:45;;;;;;;10.15;3.80;;;11.10;98.80;;;;;;5072690;28;20059;-41
2022/05/22 01:50:12;;;;;;;10.45;4.20;;;11.00;98.70;;;;;;5055517;28;20079;-42
2022/05/22 01:52:39;;;;;;;7.90;3.95;;;11.00;98.80;;;;;;5073500;28;20053;-42
2022/05/22 01:55:06;;;;;;;8.18;3.20;;;10.90;98.60;;;;;;5072930;28;20056;-42
2022/05/22 01:57:34;;;;;;;7.40;3.55;;;10.90;98.40;;;;;;5069795;28;20486;-42
2022/05/22 02:00:01;;;;;;;7.82;3.85;;;10.90;98.40;;;;;;5048913;28;20043;-42
2022/05/22 02:02:28;;;;;;;7.38;3.95;;;10.80;98.40;;;;;;5055666;28;20048;-42
2022/05/22 02:04:54;;;;;;;10.00;3.88;;;10.80;98.50;;;;;;5072132;28;20052;-42
2022/05/22 02:10:06;;;;;;;6.53;3.28;;;10.80;98.20;;;;;;5056811;28;20496;-42
2022/05/22 02:12:34;;;;;;;5.30;3.72;;;10.80;98.00;;;;;;5072587;28;20056;-42
2022/05/22 02:15:01;;;;;;;10.80;4.15;;;10.80;98.10;;;;;;5073435;28;20048;-42
2022/05/22 02:17:27;;;;;;;8.52;3.85;;;10.70;98.10;;;;;;5066954;28;20052;-42
2022/05/22 02:19:54;;;;;;;6.93;3.80;;;10.70;98.40;;;;;;5074396;28;20059;-43
2022/05/22 02:22:21;;;;;;;6.25;3.42;;;10.70;98.20;;;;;;5072827;28;20084;-42
2022/05/22 02:24:49;;;;;;;7.25;4.07;;;10.70;98.20;;;;;;5073973;28;20060;-42
2022/05/22 02:27:16;;;;;;;7.30;3.38;;;10.70;98.30;;;;;;5071690;28;20167;-42
2022/05/22 02:29:44;;;;;;;7.30;3.30;;;10.60;98.20;;;;;;5056138;28;20471;-42
2022/05/22 02:32:11;;;;;;;7.57;3.17;;;10.60;98.30;;;;;;5060578;28;20049;-42
2022/05/22 02:34:37;;;;;;;7.20;3.65;;;10.60;98.20;;;;;;5070538;28;20052;-42
2022/05/22 02:37:05;;;;;;;11.05;3.88;;;10.60;98.30;;;;;;5073828;28;20138;-42
2022/05/22 02:39:31;;;;;;;9.45;4.38;;;10.60;98.50;;;;;;5072670;28;20053;-42
2022/05/22 02:42:02;;;;;;;6.32;3.38;;;10.60;98.90;;;;;;5055569;28;20052;-42
2022/05/22 02:44:29;;;;;;;6.60;3.60;;;10.50;99.00;;;;;;5054935;28;20055;-43
2022/05/22 02:46:57;;;;;;;9.80;3.20;;;10.50;98.80;;;;;;5072630;28;20060;-42
2022/05/22 02:49:24;;;;;;;6.78;3.30;;;10.50;98.70;;;;;;5047481;28;20112;-42
2022/05/22 02:51:50;;;;;;;5.32;3.45;;;10.40;98.60;;;;;;5036406;28;20063;-42
2022/05/22 02:54:17;;;;;;;7.65;3.53;;;10.40;98.50;;;;;;5072884;28;20058;-42
2022/05/22 02:56:44;;;;;;;6.15;3.50;;;10.40;98.60;;;;;;5071970;28;20049;-42
2022/05/22 02:59:11;;;;;;;6.53;3.70;;;10.40;98.60;;;;;;5070928;28;20119;-43
2022/05/22 03:01:37;;;;;;;8.45;3.83;;;10.40;98.60;;;;;;5070810;28;20110;-42
2022/05/22 03:04:05;;;;;;;9.07;4.10;;;10.40;98.70;;;;;;5069312;28;20127;-42
2022/05/22 03:06:41;;;;;;;10.57;4.45;;;10.40;98.70;;;;;;5067520;28;20055;-43
2022/05/22 03:09:09;;;;;;;5.97;3.58;;;10.30;98.90;;;;;;5072313;28;20060;-42
2022/05/22 03:11:37;;;;;;;5.85;3.72;;;10.30;98.90;;;;;;5072132;28;20055;-42
2022/05/22 03:14:04;;;;;;;6.95;3.67;;;10.30;99.10;;;;;;5072629;28;20447;-42
2022/05/22 03:16:31;;;;;;;9.30;3.95;;;10.20;99.00;;;;;;5071881;28;20055;-42
2022/05/22 03:18:58;;;;;;;8.15;4.13;;;10.20;99.00;;;;;;5071255;28;20062;-42
2022/05/22 03:21:27;;;;;;;4.55;3.30;;;10.20;99.40;;;;;;5072139;28;20098;-42
2022/05/22 03:23:53;;;;;;;7.22;3.10;;;10.20;99.30;;;;;;5072484;28;20048;-42
2022/05/22 03:26:20;;;;;;;5.68;2.85;;;10.20;99.30;;;;;;5071805;28;20059;-42
2022/05/22 03:28:47;;;;;;;5.22;2.60;;;10.20;99.40;;;;;;5066370;28;20048;-42
2022/05/22 03:31:16;;;;;;;6.20;3.25;;;10.20;99.30;;;;;;5071566;28;20052;-42
2022/05/22 03:33:43;;;;;;;4.60;2.80;;;10.10;99.30;;;;;;5053484;28;20131;-41
2022/05/22 03:36:10;;;;;;;6.38;2.92;;;10.10;99.30;;;;;;5071913;28;20481;-42
2022/05/22 03:38:38;;;;;;;4.65;2.90;;;10.10;99.20;;;;;;5053816;28;20056;-42
2022/05/22 03:41:05;;;;;;;9.27;3.38;;;10.10;99.10;;;;;;5072581;28;20128;-42
2022/05/22 03:43:32;;;;;;;7.40;2.97;;;10.10;99.20;;;;;;5053169;28;20131;-42
2022/05/22 03:45:58;;;;;;;5.13;3.10;;;10.10;99.20;;;;;;5071317;28;20051;-42
2022/05/22 03:48:25;;;;;;;4.32;2.83;;;10.10;99.30;;;;;;5071208;28;20056;-42
2022/05/22 03:50:52;;;;;;;6.55;3.25;;;10.00;99.40;;;;;;5055518;28;20404;-42
2022/05/22 03:53:18;;;;;;;4.97;2.70;;;10.10;99.40;;;;;;5070180;28;20131;-42
2022/05/22 03:55:47;;;;;;;6.07;3.30;;;10.00;99.40;;;;;;5071251;28;20052;-42
2022/05/22 03:58:16;;;;;;;6.93;3.88;;;10.10;99.70;;;;;;5068231;28;20048;-42
2022/05/22 04:00:43;;;;;;;9.82;3.08;;;10.00;99.70;;;;;;5071331;28;20135;-43
2022/05/22 04:03:10;;;;;;;5.65;2.50;;;10.00;99.80;;;;;;5053585;28;20401;-42
2022/05/22 04:05:37;;;;;;;5.50;3.20;;;10.00;99.90;;;;;;5058517;28;20060;-43
2022/05/22 04:08:04;;;;;;;7.93;2.67;;;10.00;99.90;;;;;;5064242;28;20130;-42
2022/05/22 04:10:31;;;;;;;11.77;4.00;;;10.00;99.90;;;;;;5055042;28;20046;-42
2022/05/22 04:12:59;;;;;;;7.03;3.50;;;10.00;99.90;;;;;;5069902;28;20060;-43
2022/05/22 04:15:26;;;;;;;6.07;3.30;;;10.00;99.90;;;;;;5070769;28;20431;-42
2022/05/22 04:17:53;;;;;;;6.28;3.63;;;10.00;99.90;;;;;;5070332;28;20044;-42
2022/05/22 04:20:19;;;;;;;9.10;3.85;;;10.10;99.90;;;;;;5054832;28;20062;-42
2022/05/22 04:25:30;;;;;;;5.15;3.45;;;10.10;99.90;;;;;;5034834;28;20053;-42
2022/05/22 04:27:58;;;;;;;7.32;4.00;;;10.10;99.90;;;;;;5049917;28;20066;-43
2022/05/22 04:30:25;;;;;;;5.05;3.38;;;10.10;99.90;;;;;;5068182;28;20048;-42
2022/05/22 04:32:52;;;;;;;5.22;3.22;;;10.10;99.90;;;;;;5047216;28;20099;-42
2022/05/22 04:35:20;;;;;;;5.82;3.50;;;10.10;99.90;;;;;;5065076;28;20053;-42
2022/05/22 04:37:47;;;;;;;4.70;3.28;;;10.20;99.90;;;;;;5066590;28;20045;-42
2022/05/22 04:40:13;;;;;;;4.25;2.70;;;10.10;99.90;;;;;;5069379;28;20091;-43
2022/05/22 04:42:40;;;;;;;8.20;4.25;;;10.20;99.90;;;;;;5070443;28;20137;-41
2022/05/22 04:45:10;;;;;;;5.75;3.53;;;10.20;99.90;;;;;;5071092;28;20170;-41
2022/05/22 04:47:37;;;;;;;4.95;3.60;;;10.20;99.90;;;;;;5071512;28;20485;-42
2022/05/22 04:50:05;;;;;;;10.38;3.72;;;10.20;99.90;;;;;;5070889;28;20049;-42
2022/05/22 04:52:32;;;;;;;9.27;4.53;;;10.20;99.90;;;;;;5064988;28;20040;-42
2022/05/22 04:54:59;;;;;;;8.57;4.20;;;10.30;99.90;;;;;;5053849;28;20052;-43
2022/05/22 04:57:26;;;;;;;8.02;4.53;;;10.30;99.90;;;;;;5063788;28;20051;-42
2022/05/22 04:59:53;;;;;;;5.93;4.20;;;10.30;99.90;;;;;;5070114;28;20044;-42
2022/05/22 05:02:22;;;;;;;7.07;4.00;;;10.30;99.90;;;;;;5039149;28;20076;-42
2022/05/22 05:04:49;;;;;;;13.10;6.05;;;10.40;99.90;;;;;;5069107;28;20739;-42
2022/05/22 05:07:15;;;;;;;15.45;7.28;;;10.40;99.90;;;;;;5071112;28;20109;-42
2022/05/22 05:09:42;;;;;;;9.32;5.07;;;10.50;99.90;;;;;;5054167;28;20053;-42
2022/05/22 05:12:09;;;;;;;7.07;4.57;;;10.50;99.90;;;;;;5068079;28;20412;-43
2022/05/22 05:14:36;;;;;;;16.60;8.27;;;10.50;99.90;;;;;;5070730;28;20057;-43
2022/05/22 05:17:08;;;;;;;18.45;8.93;;;10.60;99.90;;;;;;5072855;28;20378;-43
2022/05/22 05:19:36;;;;;;;19.73;8.38;;;10.70;99.90;;;;;;5072279;28;20056;-43
2022/05/22 05:22:02;;;;;;;17.52;7.25;;;10.70;99.90;;;;;;5075393;28;20049;-43
2022/05/22 05:24:29;;;;;;;18.38;7.82;;;10.80;99.90;;;;;;5056810;28;20056;-43
2022/05/22 05:26:56;;;;;;;25.55;8.93;;;10.90;99.90;;;;;;5072016;28;20041;-43
2022/05/22 05:29:22;;;;;;;21.25;8.40;;;11.00;99.90;;;;;;5072322;28;20044;-43
2022/05/22 05:31:49;;;;;;;23.98;8.38;;;11.10;99.90;;;;;;5065129;28;20052;-43
2022/05/22 05:34:16;;;;;;;25.10;7.85;;;11.30;99.90;;;;;;5068443;28;20058;-43
2022/05/22 05:36:44;;;;;;;22.02;8.52;;;11.40;99.90;;;;;;5072182;28;20049;-43
2022/05/22 05:39:11;;;;;;;23.08;8.73;;;11.60;99.90;;;;;;5067249;28;20053;-43
2022/05/22 05:41:37;;;;;;;18.73;8.82;;;11.70;99.90;;;;;;5050861;28;20048;-43
2022/05/22 05:44:05;;;;;;;26.38;8.00;;;11.80;99.90;;;;;;5071671;28;20056;-43
2022/05/22 05:46:32;;;;;;;24.48;7.68;;;12.00;99.90;;;;;;5070789;28;20048;-43
2022/05/22 05:48:59;;;;;;;21.58;7.32;;;12.10;99.90;;;;;;5053016;28;20052;-43
2022/05/22 05:51:26;;;;;;;25.20;7.85;;;12.20;99.90;;;;;;5072940;28;20059;-43
2022/05/22 05:53:54;;;;;;;27.02;7.75;;;12.40;99.90;;;;;;5073910;28;20055;-44
2022/05/22 05:56:20;;;;;;;17.67;6.68;;;12.50;99.90;;;;;;5064780;28;20058;-43
2022/05/22 05:58:48;;;;;;;21.48;7.18;;;12.60;99.90;;;;;;5046400;28;20503;-43
2022/05/22 06:01:15;;;;;;;17.73;6.22;;;12.70;99.90;;;;;;5072057;28;20052;-42
2022/05/22 06:03:42;;;;;;;18.58;6.38;;;12.90;99.90;;;;;;5073470;28;20390;-44
2022/05/22 06:06:08;;;;;;;19.90;6.60;;;13.00;99.90;;;;;;5071903;28;20044;-43
2022/05/22 06:08:35;;;;;;;16.25;6.30;;;13.10;99.90;;;;;;5070663;28;20048;-43
2022/05/22 06:11:03;;;;;;;17.20;5.78;;;13.30;99.90;;;;;;5056289;28;20052;-43
2022/05/22 06:13:30;;;;;;;16.13;5.90;;;13.40;99.90;;;;;;5072908;28;20594;-43
2022/05/22 06:15:57;;;;;;;21.85;5.70;;;13.50;99.90;;;;;;5068585;28;20508;-43
2022/05/22 06:18:23;;;;;;;19.63;5.30;;;13.60;99.90;;;;;;5071285;28;20045;-44
2022/05/22 06:20:50;;;;;;;18.42;5.55;;;13.60;99.90;;;;;;5072813;28;20048;-43
2022/05/22 06:23:17;;;;;;;14.65;5.07;;;13.80;99.90;;;;;;5073560;28;20506;-43
2022/05/22 06:25:46;;;;;;;20.40;4.95;;;13.90;99.90;;;;;;5073097;28;20062;-43
2022/05/22 06:28:15;;;;;;;17.63;4.70;;;14.10;99.90;;;;;;5070864;28;20047;-43
2022/05/22 06:30:42;;;;;;;18.60;4.75;;;14.20;99.90;;;;;;5071697;28;20052;-43
2022/05/22 06:33:11;;;;;;;17.58;4.80;;;14.40;99.90;;;;;;5068488;28;20512;-43
2022/05/22 06:35:39;;;;;;;21.27;5.20;;;14.50;99.90;;;;;;5052666;28;20044;-43
2022/05/22 06:38:06;;;;;;;17.52;5.05;;;14.60;99.90;;;;;;5072802;28;20094;-43
2022/05/22 06:40:32;;;;;;;17.52;5.15;;;14.80;99.90;;;;;;5052652;28;20056;-43
2022/05/22 06:43:01;;;;;;;13.38;4.80;;;14.90;99.90;;;;;;5070003;28;20404;-43
2022/05/22 06:45:29;;;;;;;16.48;4.82;;;15.10;99.90;;;;;;5043177;28;21091;-44
2022/05/22 06:47:59;;;;;;;15.77;5.00;;;15.20;99.90;;;;;;5071173;28;20052;-44
2022/05/22 06:50:26;;;;;;;17.25;4.50;;;15.40;99.90;;;;;;5052221;28;20056;-43
2022/05/22 06:52:53;;;;;;;17.90;5.00;;;15.50;99.90;;;;;;5050887;28;20097;-43
2022/05/22 06:55:20;;;;;;;17.30;4.65;;;15.50;99.90;;;;;;5051841;28;20057;-43
2022/05/22 06:57:47;;;;;;;19.00;4.88;;;15.70;99.90;;;;;;5072338;28;20098;-42
2022/05/22 07:00:15;;;;;;;13.65;4.30;;;15.90;99.90;;;;;;5072367;28;20051;-43
2022/05/22 07:02:43;;;;;;;13.00;4.38;;;16.10;99.90;;;;;;5061360;28;20045;-43
2022/05/22 07:05:10;;;;;;;16.15;5.22;;;16.20;99.70;;;;;;5051047;28;20397;-43
2022/05/22 07:07:37;;;;;;;13.27;4.50;;;16.30;99.40;;;;;;5053363;28;20431;-44
2022/05/22 07:10:04;;;;;;;16.27;4.25;;;16.40;99.30;;;;;;5049136;28;20062;-44
2022/05/22 07:12:31;;;;;;;16.88;4.65;;;16.50;98.90;;;;;;5073602;28;20185;-43
2022/05/22 07:14:58;;;;;;;14.50;4.40;;;16.60;98.60;;;;;;5071503;28;20131;-43
2022/05/22 07:17:25;;;;;;;15.95;4.55;;;16.70;98.50;;;;;;5067059;28;20372;-43
2022/05/22 07:19:53;;;;;;;16.27;4.10;;;16.80;98.20;;;;;;5042349;28;20052;-44
2022/05/22 07:22:20;;;;;;;13.82;4.47;;;16.90;97.80;;;;;;5071470;28;20053;-43
2022/05/22 07:24:46;;;;;;;19.42;3.80;;;17.10;97.70;;;;;;5070897;28;20110;-43
2022/05/22 07:27:14;;;;;;;13.07;3.30;;;17.20;97.10;;;;;;5073429;28;20404;-43
2022/05/22 07:29:41;;;;;;;9.93;3.03;;;17.30;97.10;;;;;;5062647;28;20056;-44
2022/05/22 07:32:08;;;;;;;13.10;3.60;;;17.50;97.00;;;;;;5064182;28;20045;-44
2022/05/22 07:34:35;;;;;;;10.38;3.22;;;17.70;96.60;;;;;;5045933;28;20516;-43
2022/05/22 07:37:04;;;;;;;12.40;3.00;;;17.80;96.10;;;;;;5045117;28;20492;-44
2022/05/22 07:39:31;;;;;;;15.43;4.10;;;18.00;95.40;;;;;;5053601;28;20040;-43
2022/05/22 07:41:58;;;;;;;11.05;3.03;;;18.10;94.90;;;;;;5060791;28;20397;-43
2022/05/22 07:44:24;;;;;;;10.75;2.63;;;18.10;94.40;;;;;;5052682;28;20056;-44
2022/05/22 07:46:51;;;;;;;10.48;2.30;;;18.30;94.40;;;;;;5064410;28;20059;-44
2022/05/22 07:52:04;;;;;;;10.77;2.37;;;18.60;93.00;;;;;;5043270;28;20044;-43
2022/05/22 07:54:33;;;;;;;10.55;2.65;;;18.60;93.20;;;;;;5058499;28;20107;-43
2022/05/22 07:57:00;;;;;;;8.13;2.13;;;18.80;92.60;;;;;;5054049;28;20055;-44
2022/05/22 07:59:26;;;;;;;14.13;2.38;;;19.00;92.40;;;;;;5045112;28;20466;-43
2022/05/22 08:01:53;;;;;;;7.05;1.90;;;19.10;92.00;;;;;;5044773;28;20059;-44
2022/05/22 08:04:20;;;;;;;8.05;1.70;;;19.20;91.00;;;;;;5050057;28;20487;-44
2022/05/22 08:06:47;;;;;;;10.38;2.30;;;19.20;90.40;;;;;;5056065;28;20045;-44
2022/05/22 08:09:15;;;;;;;7.93;2.17;;;19.20;89.90;;;;;;5051404;28;20524;-44
2022/05/22 08:11:41;;;;;;;10.18;2.20;;;19.20;90.20;;;;;;5066658;28;21397;-43
2022/05/22 08:14:08;;;;;;;14.52;3.25;;;19.50;90.30;;;;;;5072290;28;20040;-44
2022/05/22 08:16:35;;;;;;;10.95;2.28;;;19.70;89.90;;;;;;5061012;28;20511;-44
2022/05/22 08:19:01;;;;;;;16.23;2.40;;;19.80;89.60;;;;;;5069810;28;20040;-44
2022/05/22 08:21:28;;;;;;;11.85;2.08;;;19.90;90.00;;;;;;5063753;28;20049;-44
2022/05/22 08:23:55;;;;;;;8.70;2.10;;;20.10;88.10;;;;;;5048426;28;20052;-44
2022/05/22 08:26:24;;;;;;;10.43;1.95;;;20.30;87.90;;;;;;5060949;28;20063;-43
2022/05/22 08:28:51;;;;;;;8.77;2.30;;;20.40;87.20;;;;;;5060337;28;20045;-42
2022/05/22 08:31:18;;;;;;;13.93;2.72;;;20.50;86.80;;;;;;5059134;28;20044;-42
2022/05/22 08:33:44;;;;;;;11.38;2.33;;;20.60;86.10;;;;;;5064056;28;20408;-43
2022/05/22 08:36:11;;;;;;;9.70;2.10;;;20.80;85.30;;;;;;5061364;28;20049;-43
2022/05/22 08:38:38;;;;;;;9.00;2.42;;;20.80;85.20;;;;;;5062488;28;20051;-43
2022/05/22 08:41:09;;;;;;;9.13;2.17;;;20.90;85.20;;;;;;5056653;28;20063;-43
2022/05/22 08:43:39;;;;;;;9.07;2.10;;;21.00;83.70;;;;;;5060484;28;20048;-43
2022/05/22 08:46:08;;;;;;;85.82;6.25;;;21.00;83.70;;;;;;5069528;28;20045;-43
2022/05/22 08:48:35;;;;;;;51.58;5.00;;;21.20;83.30;;;;;;5070536;28;20506;-43
2022/05/22 08:51:02;;;;;;;11.65;2.20;;;21.30;82.00;;;;;;5052444;28;20045;-43
2022/05/22 08:53:32;;;;;;;8.38;2.20;;;21.30;82.40;;;;;;5057600;28;20092;-43
2022/05/22 08:58:57;;;;;;;12.65;2.10;;;21.60;81.80;;;;;;5075105;28;20048;-44
2022/05/22 09:01:32;;;;;;;9.18;1.92;;;21.70;82.00;;;;;;5073504;28;20056;-44
2022/05/22 09:04:01;;;;;;;8.30;2.08;;;21.50;83.20;;;;;;5047612;28;20056;-44
2022/05/22 09:06:28;;;;;;;13.25;2.53;;;21.60;84.30;;;;;;5072704;28;20123;-43
2022/05/22 09:08:55;;;;;;;7.35;2.00;;;21.90;81.80;;;;;;5068027;28;20404;-42
2022/05/22 09:11:25;;;;;;;8.25;1.80;;;22.00;81.10;;;;;;5054560;28;20044;-42
2022/05/22 09:13:55;;;;;;;9.18;2.08;;;22.00;81.00;;;;;;5052138;28;20095;-43
2022/05/22 09:16:24;;;;;;;11.45;2.17;;;22.10;80.40;;;;;;5058097;28;20052;-43
2022/05/22 09:18:54;;;;;;;10.70;2.13;;;22.20;79.10;;;;;;5056680;28;20059;-43
2022/05/22 09:21:30;;;;;;;10.38;2.15;;;22.50;78.70;;;;;;5072909;28;20098;-43
2022/05/22 09:23:58;;;;;;;11.85;2.63;;;22.70;78.00;;;;;;5072219;28;20048;-43
2022/05/22 09:26:42;;;;;;;8.38;2.30;;;22.90;77.80;;;;;;5069745;28;20052;-43
2022/05/22 09:29:23;;;;;;;11.82;2.88;;;23.00;76.90;;;;;;5049658;28;20055;-43
2022/05/22 09:31:52;;;;;;;6.88;1.55;;;23.00;75.90;;;;;;5059843;28;20053;-43
2022/05/22 09:34:21;;;;;;;7.78;1.88;;;22.90;75.30;;;;;;5065971;28;20412;-43
2022/05/22 09:36:55;;;;;;;8.65;1.73;;;23.00;73.20;;;;;;5069415;28;20052;-44
2022/05/22 09:39:31;;;;;;;9.68;2.08;;;23.00;74.20;;;;;;5061876;28;20049;-43
2022/05/22 09:42:04;;;;;;;8.65;2.38;;;23.10;74.70;;;;;;5063140;28;20055;-44
2022/05/22 09:44:42;;;;;;;8.00;2.33;;;23.30;73.60;;;;;;5069490;28;20049;-43
2022/05/22 09:47:17;;;;;;;9.40;2.20;;;23.30;72.30;;;;;;5054994;28;20051;-44
2022/05/22 09:49:55;;;;;;;12.23;2.28;;;23.30;72.40;;;;;;5037228;28;20049;-43
2022/05/22 09:52:24;;;;;;;8.02;2.08;;;23.40;72.00;;;;;;5070340;28;20396;-44
2022/05/22 09:55:11;;;;;;;8.60;2.03;;;23.60;72.20;;;;;;5057152;28;20080;-43
2022/05/22 09:57:45;;;;;;;10.38;2.63;;;23.90;71.60;;;;;;5066805;28;20048;-44
2022/05/22 10:00:14;;;;;;;7.10;1.90;;;24.10;69.10;;;;;;5061026;28;20045;-43
2022/05/22 10:02:48;;;;;;;10.38;2.22;;;24.20;69.20;;;;;;5063133;28;20052;-44
2022/05/22 10:05:22;;;;;;;7.30;1.63;;;24.10;67.60;;;;;;5071317;28;20513;-43
2022/05/22 10:07:51;;;;;;;6.30;2.05;;;24.00;66.80;;;;;;5067585;28;20045;-43
2022/05/22 10:10:24;;;;;;;8.65;2.20;;;24.10;68.50;;;;;;5068349;28;20053;-43
2022/05/22 10:12:54;;;;;;;8.98;2.13;;;24.20;68.10;;;;;;5067616;28;20057;-43
2022/05/22 10:15:31;;;;;;;10.68;2.38;;;24.30;66.90;;;;;;5070401;28;20049;-43
2022/05/22 10:18:12;;;;;;;6.35;1.80;;;24.50;66.40;;;;;;5062951;28;20087;-43
2022/05/22 10:20:46;;;;;;;7.50;1.98;;;24.60;66.90;;;;;;5070500;28;20056;-43
2022/05/22 10:23:18;;;;;;;7.20;2.28;;;24.60;66.10;;;;;;5066663;28;20053;-44
2022/05/22 10:25:51;;;;;;;8.98;2.08;;;24.60;66.10;;;;;;5064902;28;20051;-43
2022/05/22 10:28:19;;;;;;;7.50;2.22;;;24.40;64.90;;;;;;5065970;28;20041;-43
2022/05/22 10:30:49;;;;;;;12.93;2.30;;;24.20;64.60;;;;;;5064112;28;20052;-43
2022/05/22 10:33:17;;;;;;;10.07;2.10;;;24.00;63.70;;;;;;5062761;28;20067;-43
2022/05/22 10:35:47;;;;;;;8.63;2.55;;;23.80;64.40;;;;;;5068731;28;20048;-43
2022/05/22 10:38:15;;;;;;;5.80;1.35;;;23.80;63.60;;;;;;5049298;28;20047;-44
2022/05/22 10:43:31;;;;;;;9.38;1.90;;;23.70;65.50;;;;;;5049360;28;20048;-43
2022/05/22 10:45:59;;;;;;;11.63;2.03;;;23.70;65.90;;;;;;5071671;28;20036;-43
2022/05/22 10:48:27;;;;;;;8.07;2.55;;;23.90;64.90;;;;;;5067151;28;20400;-43
2022/05/22 10:50:54;;;;;;;7.13;2.28;;;24.10;64.20;;;;;;5065418;28;20083;-44
2022/05/22 10:53:33;;;;;;;6.55;1.60;;;24.20;63.80;;;;;;5052559;28;20054;-43
2022/05/22 10:56:04;;;;;;;8.77;2.15;;;24.50;65.20;;;;;;5050452;28;20480;-43
2022/05/22 10:58:33;;;;;;;9.05;1.98;;;24.60;62.60;;;;;;5070243;28;20055;-43
2022/05/22 11:01:03;;;;;;;8.02;1.70;;;24.60;62.40;;;;;;5071170;28;20058;-43
2022/05/22 11:03:31;;;;;;;5.68;1.92;;;24.50;63.20;;;;;;5054158;28;20072;-43
2022/05/22 11:05:58;;;;;;;8.05;2.00;;;24.30;62.50;;;;;;5056093;28;20374;-44
2022/05/22 11:08:27;;;;;;;7.00;1.67;;;24.10;61.90;;;;;;5072244;28;20037;-43
2022/05/22 11:10:55;;;;;;;8.85;2.13;;;24.10;63.30;;;;;;5055245;28;20048;-44
2022/05/22 11:13:23;;;;;;;10.57;1.90;;;24.20;63.40;;;;;;5052288;28;20056;-43
2022/05/22 11:15:50;;;;;;;8.75;2.15;;;24.30;62.10;;;;;;5066546;28;20122;-43
2022/05/22 11:18:22;;;;;;;6.93;1.50;;;24.20;60.70;;;;;;5069964;28;20049;-43
2022/05/22 11:20:51;;;;;;;5.82;1.67;;;24.10;62.10;;;;;;5066833;28;20476;-43
2022/05/22 11:23:30;;;;;;;10.05;1.73;;;24.00;62.90;;;;;;5054816;28;20059;-43
2022/05/22 11:26:01;;;;;;;4.03;1.50;;;24.10;64.50;;;;;;5070017;28;20444;-43
2022/05/22 11:28:55;;;;;;;4.95;2.00;;;24.10;64.90;;;;;;5061765;28;20045;-44
2022/05/22 11:31:31;;;;;;;5.40;1.85;;;24.40;65.20;;;;;;5053614;28;20417;-43
2022/05/22 11:34:05;;;;;;;7.07;1.60;;;24.50;62.90;;;;;;5063289;28;20468;-44
2022/05/22 11:36:41;;;;;;;7.00;1.75;;;24.50;62.50;;;;;;5064119;28;20079;-43
2022/05/22 11:39:19;;;;;;;5.50;1.73;;;24.40;62.10;;;;;;5062924;28;20044;-42
2022/05/22 11:41:49;;;;;;;6.15;1.73;;;24.60;61.80;;;;;;5067662;28;20048;-44
2022/05/22 11:44:27;;;;;;;10.25;1.98;;;24.70;60.50;;;;;;5049982;28;20045;-44
2022/05/22 11:47:02;;;;;;;5.95;1.55;;;24.80;59.60;;;;;;5064333;28;20063;-43
2022/05/22 11:49:38;;;;;;;5.78;1.60;;;24.70;59.40;;;;;;5049814;28;20054;-44
2022/05/22 11:55:02;;;;;;;5.32;1.80;;;24.70;60.10;;;;;;5062994;28;20557;-44
2022/05/22 11:57:34;;;;;;;8.90;1.42;;;24.80;58.80;;;;;;5051408;28;20052;-44
2022/05/22 12:00:14;;;;;;;7.97;1.80;;;24.90;58.80;;;;;;5050698;28;20120;-44
2022/05/22 12:02:52;;;;;;;6.93;1.67;;;24.90;57.50;;;;;;5053935;28;20072;-44
2022/05/22 12:05:25;;;;;;;11.18;2.30;;;24.80;58.80;;;;;;5060610;28;20048;-44
2022/05/22 12:08:14;;;;;;;5.60;1.83;;;24.90;59.40;;;;;;5041929;28;20063;-44
2022/05/22 12:10:44;;;;;;;7.47;1.60;;;25.10;59.00;;;;;;5056293;28;20052;-44
2022/05/22 12:13:14;;;;;;;8.52;2.05;;;25.20;57.10;;;;;;5048861;28;20055;-44
2022/05/22 12:15:44;;;;;;;6.30;1.65;;;25.20;56.20;;;;;;5048287;28;20477;-43
2022/05/22 12:18:30;;;;;;;4.90;1.30;;;25.20;56.30;;;;;;5056368;28;20041;-44
2022/05/22 12:21:01;;;;;;;6.93;1.58;;;25.30;57.80;;;;;;5048309;28;20048;-43
2022/05/22 12:23:28;;;;;;;;;;;25.50;56.60;;;;;;5043317;28;20048;-43
2022/05/22 12:25:58;;;;;;;7.78;1.60;;;25.50;57.30;;;;;;5064649;28;19926;-44
2022/05/22 12:28:40;;;;;;;8.13;1.88;;;25.20;57.00;;;;;;5047252;28;20052;-44
2022/05/22 12:31:07;;;;;;;5.75;1.30;;;25.10;57.10;;;;;;5069546;28;20049;-43
2022/05/22 12:33:35;;;;;;;5.85;1.50;;;24.90;57.20;;;;;;5052171;28;20096;-43
2022/05/22 12:36:04;;;;;;;6.93;1.52;;;24.80;58.20;;;;;;5067648;28;20481;-43
2022/05/22 12:38:30;;;;;;;8.10;2.08;;;24.80;57.70;;;;;;5069984;28;20397;-44
2022/05/22 12:41:03;;;;;;;7.45;1.85;;;24.70;58.50;;;;;;5065416;28;20051;-43
2022/05/22 12:43:30;;;;;;;5.28;1.35;;;24.70;58.70;;;;;;5053987;28;20056;-44
2022/05/22 12:45:58;;;;;;;6.75;1.50;;;24.70;57.70;;;;;;5071056;28;20586;-44
2022/05/22 12:48:26;;;;;;;8.00;1.63;;;24.60;57.20;;;;;;5051030;28;20786;-44
2022/05/22 12:50:54;;;;;;;8.02;1.48;;;24.50;59.00;;;;;;5049948;28;20060;-44
2022/05/22 12:53:28;;;;;;;6.00;1.60;;;24.60;58.70;;;;;;5051372;28;20048;-44
2022/05/22 12:55:55;;;;;;;7.05;1.80;;;24.70;58.20;;;;;;5063170;28;20048;-43
2022/05/22 12:58:31;;;;;;;4.63;1.42;;;24.70;57.80;;;;;;5050755;28;20056;-43
2022/05/22 13:00:58;;;;;;;5.35;1.35;;;24.70;57.50;;;;;;5070895;28;20045;-43
2022/05/22 13:03:26;;;;;;;6.78;1.30;;;24.80;57.80;;;;;;5077507;28;20040;-44
2022/05/22 13:05:57;;;;;;;4.78;1.35;;;25.00;58.00;;;;;;5069618;28;20040;-43
2022/05/22 13:08:29;;;;;;;6.00;1.52;;;25.10;56.00;;;;;;5067035;28;20056;-43